sensor_id;sensor_type;location;lat;lon;timestamp;P1;durP1;ratioP1;P2;durP2;ratioP2
59790;SDS011;47431;51.640;5.554;2024-03-07T00:00:08;63.15;;;38.35;;
59790;SDS011;47431;51.640;5.554;2024-03-07T00:02:44;57.03;;;38.55;;
59790;SDS011;47431;51.640;5.554;2024-03-07T00:05:12;53.55;;;36.80;;
59790;SDS011;47431;51.640;5.554;2024-03-07T00:07:39;59.00;;;37.60;;
59790;SDS011;47431;51.640;5.554;2024-03-07T00:10:05;52.05;;;36.38;;
59790;SDS011;47431;51.640;5.554;2024-03-07T00:12:35;60.20;;;36.70;;
59790;SDS011;47431;51.640;5.554;2024-03-07T00:15:02;54.70;;;36.25;;
59790;SDS011;47431;51.640;5.554;2024-03-07T00:17:28;58.40;;;39.30;;
59790;SDS011;47431;51.640;5.554;2024-03-07T00:19:53;56.80;;;38.50;;
59790;SDS011;47431;51.640;5.554;2024-03-07T00:22:19;55.33;;;39.30;;
59790;SDS011;47431;51.640;5.554;2024-03-07T00:24:45;59.03;;;40.25;;
59790;SDS011;47431;51.640;5.554;2024-03-07T00:27:15;61.22;;;42.42;;
59790;SDS011;47431;51.640;5.554;2024-03-07T00:29:55;55.45;;;39.97;;
59790;SDS011;47431;51.640;5.554;2024-03-07T00:32:22;57.15;;;38.63;;
59790;SDS011;47431;51.640;5.554;2024-03-07T00:34:48;55.85;;;37.33;;
59790;SDS011;47431;51.640;5.554;2024-03-07T00:37:15;59.70;;;41.70;;
59790;SDS011;47431;51.640;5.554;2024-03-07T00:39:41;60.05;;;39.10;;
59790;SDS011;47431;51.640;5.554;2024-03-07T00:42:07;57.95;;;37.72;;
59790;SDS011;47431;51.640;5.554;2024-03-07T00:44:33;58.08;;;37.95;;
59790;SDS011;47431;51.640;5.554;2024-03-07T00:46:59;60.60;;;39.67;;
59790;SDS011;47431;51.640;5.554;2024-03-07T00:49:25;59.95;;;38.40;;
59790;SDS011;47431;51.640;5.554;2024-03-07T00:51:50;60.80;;;40.55;;
59790;SDS011;47431;51.640;5.554;2024-03-07T00:54:16;62.38;;;40.28;;
59790;SDS011;47431;51.640;5.554;2024-03-07T00:56:41;63.35;;;41.38;;
59790;SDS011;47431;51.640;5.554;2024-03-07T00:59:07;62.90;;;40.65;;
59790;SDS011;47431;51.640;5.554;2024-03-07T01:01:32;63.45;;;41.03;;
59790;SDS011;47431;51.640;5.554;2024-03-07T01:04:01;59.50;;;41.10;;
59790;SDS011;47431;51.640;5.554;2024-03-07T01:06:27;63.33;;;39.97;;
59790;SDS011;47431;51.640;5.554;2024-03-07T01:08:53;65.30;;;43.05;;
59790;SDS011;47431;51.640;5.554;2024-03-07T01:11:18;68.30;;;44.53;;
59790;SDS011;47431;51.640;5.554;2024-03-07T01:13:44;58.13;;;39.30;;
59790;SDS011;47431;51.640;5.554;2024-03-07T01:16:09;69.28;;;39.70;;
59790;SDS011;47431;51.640;5.554;2024-03-07T01:18:35;58.10;;;38.08;;
59790;SDS011;47431;51.640;5.554;2024-03-07T01:21:03;63.30;;;40.03;;
59790;SDS011;47431;51.640;5.554;2024-03-07T01:23:30;64.22;;;39.88;;
59790;SDS011;47431;51.640;5.554;2024-03-07T01:25:56;67.38;;;42.60;;
59790;SDS011;47431;51.640;5.554;2024-03-07T01:28:25;59.08;;;40.15;;
59790;SDS011;47431;51.640;5.554;2024-03-07T01:30:51;63.83;;;44.47;;
59790;SDS011;47431;51.640;5.554;2024-03-07T01:33:18;71.23;;;44.77;;
59790;SDS011;47431;51.640;5.554;2024-03-07T01:35:44;66.05;;;42.50;;
59790;SDS011;47431;51.640;5.554;2024-03-07T01:38:10;61.65;;;39.42;;
59790;SDS011;47431;51.640;5.554;2024-03-07T01:40:38;59.22;;;41.05;;
59790;SDS011;47431;51.640;5.554;2024-03-07T01:43:04;63.45;;;41.63;;
59790;SDS011;47431;51.640;5.554;2024-03-07T01:45:31;64.95;;;42.30;;
59790;SDS011;47431;51.640;5.554;2024-03-07T01:47:57;60.40;;;42.63;;
59790;SDS011;47431;51.640;5.554;2024-03-07T01:50:22;64.55;;;40.67;;
59790;SDS011;47431;51.640;5.554;2024-03-07T01:52:48;61.88;;;40.50;;
59790;SDS011;47431;51.640;5.554;2024-03-07T01:55:16;66.93;;;41.33;;
59790;SDS011;47431;51.640;5.554;2024-03-07T01:57:42;70.93;;;44.33;;
59790;SDS011;47431;51.640;5.554;2024-03-07T02:00:08;67.97;;;42.00;;
59790;SDS011;47431;51.640;5.554;2024-03-07T02:02:34;67.00;;;44.25;;
59790;SDS011;47431;51.640;5.554;2024-03-07T02:05:00;69.13;;;44.13;;
59790;SDS011;47431;51.640;5.554;2024-03-07T02:07:26;62.13;;;40.53;;
59790;SDS011;47431;51.640;5.554;2024-03-07T02:10:02;65.50;;;41.40;;
59790;SDS011;47431;51.640;5.554;2024-03-07T02:12:29;64.45;;;41.35;;
59790;SDS011;47431;51.640;5.554;2024-03-07T02:14:55;66.17;;;41.83;;
59790;SDS011;47431;51.640;5.554;2024-03-07T02:17:22;61.23;;;38.47;;
59790;SDS011;47431;51.640;5.554;2024-03-07T02:19:51;69.47;;;41.13;;
59790;SDS011;47431;51.640;5.554;2024-03-07T02:22:17;63.93;;;41.53;;
59790;SDS011;47431;51.640;5.554;2024-03-07T02:24:43;79.90;;;45.10;;
59790;SDS011;47431;51.640;5.554;2024-03-07T02:27:10;80.00;;;46.23;;
59790;SDS011;47431;51.640;5.554;2024-03-07T02:29:36;66.00;;;42.07;;
59790;SDS011;47431;51.640;5.554;2024-03-07T02:32:02;68.23;;;44.10;;
59790;SDS011;47431;51.640;5.554;2024-03-07T02:34:28;70.33;;;44.50;;
59790;SDS011;47431;51.640;5.554;2024-03-07T02:36:53;68.50;;;43.43;;
59790;SDS011;47431;51.640;5.554;2024-03-07T02:39:19;68.87;;;42.40;;
59790;SDS011;47431;51.640;5.554;2024-03-07T02:41:46;70.47;;;43.10;;
59790;SDS011;47431;51.640;5.554;2024-03-07T02:44:13;74.10;;;44.10;;
59790;SDS011;47431;51.640;5.554;2024-03-07T02:46:39;75.90;;;44.20;;
59790;SDS011;47431;51.640;5.554;2024-03-07T02:49:05;65.03;;;43.80;;
59790;SDS011;47431;51.640;5.554;2024-03-07T02:51:30;77.27;;;43.40;;
59790;SDS011;47431;51.640;5.554;2024-03-07T02:53:56;73.37;;;45.87;;
59790;SDS011;47431;51.640;5.554;2024-03-07T02:56:22;76.97;;;45.57;;
59790;SDS011;47431;51.640;5.554;2024-03-07T02:58:48;80.53;;;47.10;;
59790;SDS011;47431;51.640;5.554;2024-03-07T03:01:14;78.33;;;45.67;;
59790;SDS011;47431;51.640;5.554;2024-03-07T03:03:39;85.47;;;48.53;;
59790;SDS011;47431;51.640;5.554;2024-03-07T03:06:07;75.53;;;46.27;;
59790;SDS011;47431;51.640;5.554;2024-03-07T03:08:33;85.50;;;50.27;;
59790;SDS011;47431;51.640;5.554;2024-03-07T03:11:00;83.57;;;51.57;;
59790;SDS011;47431;51.640;5.554;2024-03-07T03:13:25;82.73;;;49.10;;
59790;SDS011;47431;51.640;5.554;2024-03-07T03:15:54;82.13;;;48.57;;
59790;SDS011;47431;51.640;5.554;2024-03-07T03:18:21;82.13;;;48.23;;
59790;SDS011;47431;51.640;5.554;2024-03-07T03:20:47;86.57;;;50.30;;
59790;SDS011;47431;51.640;5.554;2024-03-07T03:23:13;85.93;;;51.13;;
59790;SDS011;47431;51.640;5.554;2024-03-07T03:25:39;92.00;;;51.67;;
59790;SDS011;47431;51.640;5.554;2024-03-07T03:28:05;83.83;;;51.97;;
59790;SDS011;47431;51.640;5.554;2024-03-07T03:30:31;85.90;;;49.70;;
59790;SDS011;47431;51.640;5.554;2024-03-07T03:32:57;81.23;;;53.30;;
59790;SDS011;47431;51.640;5.554;2024-03-07T03:35:23;90.87;;;51.97;;
59790;SDS011;47431;51.640;5.554;2024-03-07T03:37:49;90.80;;;53.93;;
59790;SDS011;47431;51.640;5.554;2024-03-07T03:40:15;87.53;;;50.23;;
59790;SDS011;47431;51.640;5.554;2024-03-07T03:42:41;95.93;;;55.00;;
59790;SDS011;47431;51.640;5.554;2024-03-07T03:45:08;87.57;;;53.37;;
59790;SDS011;47431;51.640;5.554;2024-03-07T03:47:36;89.95;;;55.13;;
59790;SDS011;47431;51.640;5.554;2024-03-07T03:50:05;88.17;;;51.80;;
59790;SDS011;47431;51.640;5.554;2024-03-07T03:52:32;81.00;;;51.27;;
59790;SDS011;47431;51.640;5.554;2024-03-07T03:55:00;77.65;;;49.22;;
59790;SDS011;47431;51.640;5.554;2024-03-07T03:57:27;88.22;;;53.38;;
59790;SDS011;47431;51.640;5.554;2024-03-07T03:59:54;84.38;;;50.97;;
59790;SDS011;47431;51.640;5.554;2024-03-07T04:02:21;92.27;;;53.03;;
59790;SDS011;47431;51.640;5.554;2024-03-07T04:04:47;93.20;;;53.20;;
59790;SDS011;47431;51.640;5.554;2024-03-07T04:07:13;79.43;;;50.40;;
59790;SDS011;47431;51.640;5.554;2024-03-07T04:09:41;92.83;;;52.57;;
59790;SDS011;47431;51.640;5.554;2024-03-07T04:12:07;88.10;;;55.07;;
59790;SDS011;47431;51.640;5.554;2024-03-07T04:14:36;85.97;;;51.50;;
59790;SDS011;47431;51.640;5.554;2024-03-07T04:17:02;97.47;;;55.57;;
59790;SDS011;47431;51.640;5.554;2024-03-07T04:19:27;90.77;;;54.57;;
59790;SDS011;47431;51.640;5.554;2024-03-07T04:21:53;83.00;;;53.77;;
59790;SDS011;47431;51.640;5.554;2024-03-07T04:24:19;85.00;;;52.42;;
59790;SDS011;47431;51.640;5.554;2024-03-07T04:26:45;82.15;;;53.13;;
59790;SDS011;47431;51.640;5.554;2024-03-07T04:29:10;87.03;;;55.23;;
59790;SDS011;47431;51.640;5.554;2024-03-07T04:31:36;92.40;;;54.83;;
59790;SDS011;47431;51.640;5.554;2024-03-07T04:34:02;93.50;;;53.67;;
59790;SDS011;47431;51.640;5.554;2024-03-07T04:36:27;89.60;;;55.50;;
59790;SDS011;47431;51.640;5.554;2024-03-07T04:38:53;86.73;;;54.47;;
59790;SDS011;47431;51.640;5.554;2024-03-07T04:41:20;83.73;;;54.30;;
59790;SDS011;47431;51.640;5.554;2024-03-07T04:43:46;80.77;;;51.67;;
59790;SDS011;47431;51.640;5.554;2024-03-07T04:46:11;88.43;;;52.30;;
59790;SDS011;47431;51.640;5.554;2024-03-07T04:48:37;91.20;;;52.53;;
59790;SDS011;47431;51.640;5.554;2024-03-07T04:51:02;87.17;;;53.97;;
59790;SDS011;47431;51.640;5.554;2024-03-07T04:53:28;85.10;;;53.60;;
59790;SDS011;47431;51.640;5.554;2024-03-07T04:55:54;83.03;;;51.20;;
59790;SDS011;47431;51.640;5.554;2024-03-07T04:58:19;84.33;;;52.30;;
59790;SDS011;47431;51.640;5.554;2024-03-07T05:00:45;88.10;;;54.10;;
59790;SDS011;47431;51.640;5.554;2024-03-07T05:03:10;84.83;;;51.90;;
59790;SDS011;47431;51.640;5.554;2024-03-07T05:05:36;88.80;;;53.63;;
59790;SDS011;47431;51.640;5.554;2024-03-07T05:08:02;86.57;;;53.37;;
59790;SDS011;47431;51.640;5.554;2024-03-07T05:10:29;83.20;;;53.47;;
59790;SDS011;47431;51.640;5.554;2024-03-07T05:12:56;86.47;;;52.13;;
59790;SDS011;47431;51.640;5.554;2024-03-07T05:15:24;83.43;;;52.73;;
59790;SDS011;47431;51.640;5.554;2024-03-07T05:17:51;83.27;;;52.73;;
59790;SDS011;47431;51.640;5.554;2024-03-07T05:20:17;83.20;;;52.87;;
59790;SDS011;47431;51.640;5.554;2024-03-07T05:22:43;91.97;;;52.77;;
59790;SDS011;47431;51.640;5.554;2024-03-07T05:25:17;91.80;;;53.20;;
59790;SDS011;47431;51.640;5.554;2024-03-07T05:27:47;96.40;;;54.63;;
59790;SDS011;47431;51.640;5.554;2024-03-07T05:30:16;84.97;;;50.47;;
59790;SDS011;47431;51.640;5.554;2024-03-07T05:32:42;93.80;;;55.57;;
59790;SDS011;47431;51.640;5.554;2024-03-07T05:35:08;88.50;;;55.20;;
59790;SDS011;47431;51.640;5.554;2024-03-07T05:37:33;88.30;;;56.63;;
59790;SDS011;47431;51.640;5.554;2024-03-07T05:39:59;89.37;;;53.77;;
59790;SDS011;47431;51.640;5.554;2024-03-07T05:42:25;91.33;;;54.10;;
59790;SDS011;47431;51.640;5.554;2024-03-07T05:44:51;87.97;;;53.57;;
59790;SDS011;47431;51.640;5.554;2024-03-07T05:47:18;96.50;;;56.63;;
59790;SDS011;47431;51.640;5.554;2024-03-07T05:49:44;90.37;;;55.13;;
59790;SDS011;47431;51.640;5.554;2024-03-07T05:52:09;97.90;;;55.30;;
59790;SDS011;47431;51.640;5.554;2024-03-07T05:54:35;87.70;;;53.57;;
59790;SDS011;47431;51.640;5.554;2024-03-07T05:57:01;95.03;;;57.50;;
59790;SDS011;47431;51.640;5.554;2024-03-07T05:59:27;94.40;;;57.83;;
59790;SDS011;47431;51.640;5.554;2024-03-07T06:01:56;94.73;;;55.43;;
59790;SDS011;47431;51.640;5.554;2024-03-07T06:04:22;97.00;;;53.87;;
59790;SDS011;47431;51.640;5.554;2024-03-07T06:06:48;95.33;;;56.17;;
59790;SDS011;47431;51.640;5.554;2024-03-07T06:09:13;91.97;;;54.50;;
59790;SDS011;47431;51.640;5.554;2024-03-07T06:11:40;91.20;;;55.07;;
59790;SDS011;47431;51.640;5.554;2024-03-07T06:14:09;89.07;;;54.60;;
59790;SDS011;47431;51.640;5.554;2024-03-07T06:16:37;81.07;;;51.90;;
59790;SDS011;47431;51.640;5.554;2024-03-07T06:19:04;90.33;;;54.63;;
59790;SDS011;47431;51.640;5.554;2024-03-07T06:21:33;86.67;;;51.60;;
59790;SDS011;47431;51.640;5.554;2024-03-07T06:24:00;90.10;;;56.50;;
59790;SDS011;47431;51.640;5.554;2024-03-07T06:26:31;97.10;;;55.40;;
59790;SDS011;47431;51.640;5.554;2024-03-07T06:29:06;83.43;;;53.03;;
59790;SDS011;47431;51.640;5.554;2024-03-07T06:31:33;90.60;;;55.17;;
59790;SDS011;47431;51.640;5.554;2024-03-07T06:33:58;90.13;;;56.47;;
59790;SDS011;47431;51.640;5.554;2024-03-07T06:36:24;87.83;;;56.03;;
59790;SDS011;47431;51.640;5.554;2024-03-07T06:38:50;87.97;;;57.10;;
59790;SDS011;47431;51.640;5.554;2024-03-07T06:41:16;93.63;;;54.43;;
59790;SDS011;47431;51.640;5.554;2024-03-07T06:43:43;85.87;;;55.63;;
59790;SDS011;47431;51.640;5.554;2024-03-07T06:46:10;81.50;;;50.67;;
59790;SDS011;47431;51.640;5.554;2024-03-07T06:48:37;87.63;;;54.15;;
59790;SDS011;47431;51.640;5.554;2024-03-07T06:51:08;85.13;;;52.53;;
59790;SDS011;47431;51.640;5.554;2024-03-07T06:53:33;87.47;;;52.25;;
59790;SDS011;47431;51.640;5.554;2024-03-07T06:55:59;83.10;;;53.22;;
59790;SDS011;47431;51.640;5.554;2024-03-07T06:58:25;84.45;;;52.65;;
59790;SDS011;47431;51.640;5.554;2024-03-07T07:01:00;86.90;;;57.15;;
59790;SDS011;47431;51.640;5.554;2024-03-07T07:03:32;86.88;;;56.20;;
59790;SDS011;47431;51.640;5.554;2024-03-07T07:05:58;88.13;;;54.63;;
59790;SDS011;47431;51.640;5.554;2024-03-07T07:08:23;85.10;;;54.08;;
59790;SDS011;47431;51.640;5.554;2024-03-07T07:10:49;80.40;;;52.55;;
59790;SDS011;47431;51.640;5.554;2024-03-07T07:13:15;90.70;;;55.60;;
59790;SDS011;47431;51.640;5.554;2024-03-07T07:15:41;86.00;;;52.78;;
59790;SDS011;47431;51.640;5.554;2024-03-07T07:18:08;83.70;;;52.50;;
59790;SDS011;47431;51.640;5.554;2024-03-07T07:20:35;73.38;;;51.30;;
59790;SDS011;47431;51.640;5.554;2024-03-07T07:23:01;72.57;;;47.90;;
59790;SDS011;47431;51.640;5.554;2024-03-07T07:25:27;73.38;;;50.80;;
59790;SDS011;47431;51.640;5.554;2024-03-07T07:27:53;70.53;;;47.75;;
59790;SDS011;47431;51.640;5.554;2024-03-07T07:30:19;76.63;;;48.65;;
59790;SDS011;47431;51.640;5.554;2024-03-07T07:32:48;69.63;;;48.40;;
59790;SDS011;47431;51.640;5.554;2024-03-07T07:35:15;70.60;;;48.65;;
59790;SDS011;47431;51.640;5.554;2024-03-07T07:37:44;70.00;;;52.47;;
59790;SDS011;47431;51.640;5.554;2024-03-07T07:40:13;65.25;;;47.25;;
59790;SDS011;47431;51.640;5.554;2024-03-07T07:42:43;67.03;;;47.28;;
59790;SDS011;47431;51.640;5.554;2024-03-07T07:45:11;60.97;;;43.50;;
59790;SDS011;47431;51.640;5.554;2024-03-07T07:47:45;63.35;;;44.42;;
59790;SDS011;47431;51.640;5.554;2024-03-07T07:50:15;59.35;;;40.50;;
59790;SDS011;47431;51.640;5.554;2024-03-07T07:52:44;52.97;;;40.50;;
59790;SDS011;47431;51.640;5.554;2024-03-07T07:55:13;51.63;;;39.28;;
59790;SDS011;47431;51.640;5.554;2024-03-07T07:57:56;50.80;;;35.92;;
59790;SDS011;47431;51.640;5.554;2024-03-07T08:00:23;45.95;;;35.08;;
59790;SDS011;47431;51.640;5.554;2024-03-07T08:02:58;44.00;;;34.17;;
59790;SDS011;47431;51.640;5.554;2024-03-07T08:05:29;46.17;;;34.28;;
59790;SDS011;47431;51.640;5.554;2024-03-07T08:07:58;42.60;;;31.83;;
59790;SDS011;47431;51.640;5.554;2024-03-07T08:10:26;39.03;;;30.83;;
59790;SDS011;47431;51.640;5.554;2024-03-07T08:12:55;41.63;;;31.25;;
59790;SDS011;47431;51.640;5.554;2024-03-07T08:15:28;41.35;;;32.22;;
59790;SDS011;47431;51.640;5.554;2024-03-07T08:17:54;40.47;;;30.45;;
59790;SDS011;47431;51.640;5.554;2024-03-07T08:20:21;35.88;;;30.90;;
59790;SDS011;47431;51.640;5.554;2024-03-07T08:22:47;37.28;;;29.95;;
59790;SDS011;47431;51.640;5.554;2024-03-07T08:25:19;43.08;;;29.40;;
59790;SDS011;47431;51.640;5.554;2024-03-07T08:27:46;37.95;;;28.67;;
59790;SDS011;47431;51.640;5.554;2024-03-07T08:30:13;39.33;;;28.92;;
59790;SDS011;47431;51.640;5.554;2024-03-07T08:32:39;34.58;;;26.20;;
59790;SDS011;47431;51.640;5.554;2024-03-07T08:35:06;36.40;;;27.23;;
59790;SDS011;47431;51.640;5.554;2024-03-07T08:37:38;38.40;;;26.63;;
59790;SDS011;47431;51.640;5.554;2024-03-07T08:40:05;28.38;;;21.38;;
59790;SDS011;47431;51.640;5.554;2024-03-07T08:42:38;37.03;;;27.95;;
59790;SDS011;47431;51.640;5.554;2024-03-07T08:45:07;32.60;;;25.23;;
59790;SDS011;47431;51.640;5.554;2024-03-07T08:47:35;32.88;;;25.75;;
59790;SDS011;47431;51.640;5.554;2024-03-07T08:50:03;34.70;;;26.83;;
59790;SDS011;47431;51.640;5.554;2024-03-07T08:52:33;33.25;;;25.75;;
59790;SDS011;47431;51.640;5.554;2024-03-07T08:55:02;31.35;;;24.00;;
59790;SDS011;47431;51.640;5.554;2024-03-07T08:57:27;28.58;;;23.70;;
59790;SDS011;47431;51.640;5.554;2024-03-07T08:59:53;30.73;;;24.23;;
59790;SDS011;47431;51.640;5.554;2024-03-07T09:02:18;28.77;;;23.90;;
59790;SDS011;47431;51.640;5.554;2024-03-07T09:04:44;25.50;;;20.15;;
59790;SDS011;47431;51.640;5.554;2024-03-07T09:07:09;32.65;;;23.70;;
59790;SDS011;47431;51.640;5.554;2024-03-07T09:09:35;26.83;;;22.17;;
59790;SDS011;47431;51.640;5.554;2024-03-07T09:12:00;27.80;;;22.60;;
59790;SDS011;47431;51.640;5.554;2024-03-07T09:14:27;30.10;;;22.67;;
59790;SDS011;47431;51.640;5.554;2024-03-07T09:16:53;31.38;;;22.88;;
59790;SDS011;47431;51.640;5.554;2024-03-07T09:19:18;28.38;;;22.35;;
59790;SDS011;47431;51.640;5.554;2024-03-07T09:21:48;28.27;;;21.83;;
59790;SDS011;47431;51.640;5.554;2024-03-07T09:24:15;25.58;;;19.10;;
59790;SDS011;47431;51.640;5.554;2024-03-07T09:26:41;28.65;;;22.45;;
59790;SDS011;47431;51.640;5.554;2024-03-07T09:29:06;27.42;;;21.42;;
59790;SDS011;47431;51.640;5.554;2024-03-07T09:31:32;28.80;;;21.65;;
59790;SDS011;47431;51.640;5.554;2024-03-07T09:33:58;28.00;;;21.52;;
59790;SDS011;47431;51.640;5.554;2024-03-07T09:36:24;30.40;;;21.27;;
59790;SDS011;47431;51.640;5.554;2024-03-07T09:38:50;28.83;;;21.67;;
59790;SDS011;47431;51.640;5.554;2024-03-07T09:41:15;25.23;;;20.45;;
59790;SDS011;47431;51.640;5.554;2024-03-07T09:43:45;25.17;;;19.73;;
59790;SDS011;47431;51.640;5.554;2024-03-07T09:46:13;28.20;;;22.02;;
59790;SDS011;47431;51.640;5.554;2024-03-07T09:48:39;28.52;;;21.20;;
59790;SDS011;47431;51.640;5.554;2024-03-07T09:51:05;26.83;;;19.75;;
59790;SDS011;47431;51.640;5.554;2024-03-07T09:53:36;25.80;;;18.95;;
59790;SDS011;47431;51.640;5.554;2024-03-07T09:56:02;24.65;;;19.40;;
59790;SDS011;47431;51.640;5.554;2024-03-07T09:58:29;22.70;;;19.85;;
59790;SDS011;47431;51.640;5.554;2024-03-07T10:00:58;26.60;;;19.67;;
59790;SDS011;47431;51.640;5.554;2024-03-07T10:03:37;25.45;;;19.77;;
59790;SDS011;47431;51.640;5.554;2024-03-07T10:06:09;26.58;;;19.65;;
59790;SDS011;47431;51.640;5.554;2024-03-07T10:08:39;33.78;;;19.48;;
59790;SDS011;47431;51.640;5.554;2024-03-07T10:11:07;26.67;;;20.13;;
59790;SDS011;47431;51.640;5.554;2024-03-07T10:13:35;25.73;;;21.38;;
59790;SDS011;47431;51.640;5.554;2024-03-07T10:16:10;26.38;;;20.40;;
59790;SDS011;47431;51.640;5.554;2024-03-07T10:18:44;26.17;;;19.58;;
59790;SDS011;47431;51.640;5.554;2024-03-07T10:21:12;23.20;;;18.80;;
59790;SDS011;47431;51.640;5.554;2024-03-07T10:23:44;29.38;;;19.88;;
59790;SDS011;47431;51.640;5.554;2024-03-07T10:26:10;28.33;;;18.38;;
59790;SDS011;47431;51.640;5.554;2024-03-07T10:28:37;23.90;;;19.63;;
59790;SDS011;47431;51.640;5.554;2024-03-07T10:31:03;26.23;;;20.88;;
59790;SDS011;47431;51.640;5.554;2024-03-07T10:33:29;25.85;;;18.63;;
59790;SDS011;47431;51.640;5.554;2024-03-07T10:35:59;23.48;;;19.15;;
59790;SDS011;47431;51.640;5.554;2024-03-07T10:38:26;23.67;;;19.60;;
59790;SDS011;47431;51.640;5.554;2024-03-07T10:40:55;25.15;;;18.83;;
59790;SDS011;47431;51.640;5.554;2024-03-07T10:43:23;25.45;;;18.92;;
59790;SDS011;47431;51.640;5.554;2024-03-07T10:45:53;26.98;;;21.25;;
59790;SDS011;47431;51.640;5.554;2024-03-07T10:48:22;23.52;;;19.58;;
59790;SDS011;47431;51.640;5.554;2024-03-07T10:56:12;24.45;;;20.70;;
59790;SDS011;47431;51.640;5.554;2024-03-07T11:01:39;21.15;;;17.35;;
59790;SDS011;47431;51.640;5.554;2024-03-07T11:04:10;22.88;;;20.42;;
59790;SDS011;47431;51.640;5.554;2024-03-07T11:06:40;27.13;;;20.10;;
59790;SDS011;47431;51.640;5.554;2024-03-07T11:09:09;22.60;;;18.25;;
59790;SDS011;47431;51.640;5.554;2024-03-07T11:11:39;21.80;;;18.35;;
59790;SDS011;47431;51.640;5.554;2024-03-07T11:14:09;21.92;;;16.92;;
59790;SDS011;47431;51.640;5.554;2024-03-07T11:16:37;23.00;;;18.88;;
59790;SDS011;47431;51.640;5.554;2024-03-07T11:19:24;22.77;;;18.55;;
59790;SDS011;47431;51.640;5.554;2024-03-07T11:21:55;21.83;;;18.40;;
59790;SDS011;47431;51.640;5.554;2024-03-07T11:24:30;22.63;;;18.00;;
59790;SDS011;47431;51.640;5.554;2024-03-07T11:27:02;30.52;;;18.48;;
59790;SDS011;47431;51.640;5.554;2024-03-07T11:29:39;27.50;;;19.80;;
59790;SDS011;47431;51.640;5.554;2024-03-07T11:32:11;22.88;;;18.65;;
59790;SDS011;47431;51.640;5.554;2024-03-07T11:34:40;26.08;;;19.40;;
59790;SDS011;47431;51.640;5.554;2024-03-07T11:37:07;26.00;;;19.15;;
59790;SDS011;47431;51.640;5.554;2024-03-07T11:39:42;26.30;;;20.00;;
59790;SDS011;47431;51.640;5.554;2024-03-07T11:42:09;23.92;;;19.52;;
59790;SDS011;47431;51.640;5.554;2024-03-07T11:44:34;26.75;;;20.45;;
59790;SDS011;47431;51.640;5.554;2024-03-07T11:47:03;25.08;;;17.50;;
59790;SDS011;47431;51.640;5.554;2024-03-07T11:49:34;26.23;;;20.17;;
59790;SDS011;47431;51.640;5.554;2024-03-07T11:52:01;29.05;;;19.85;;
59790;SDS011;47431;51.640;5.554;2024-03-07T11:54:30;28.25;;;20.73;;
59790;SDS011;47431;51.640;5.554;2024-03-07T11:56:56;25.40;;;18.85;;
59790;SDS011;47431;51.640;5.554;2024-03-07T11:59:22;33.75;;;20.83;;
59790;SDS011;47431;51.640;5.554;2024-03-07T12:01:48;32.45;;;20.55;;
59790;SDS011;47431;51.640;5.554;2024-03-07T12:04:14;26.63;;;19.65;;
59790;SDS011;47431;51.640;5.554;2024-03-07T12:06:49;25.00;;;19.23;;
59790;SDS011;47431;51.640;5.554;2024-03-07T12:09:16;26.75;;;19.27;;
59790;SDS011;47431;51.640;5.554;2024-03-07T12:14:18;30.10;;;19.75;;
59790;SDS011;47431;51.640;5.554;2024-03-07T12:16:47;26.90;;;21.52;;
59790;SDS011;47431;51.640;5.554;2024-03-07T12:19:13;29.25;;;19.70;;
59790;SDS011;47431;51.640;5.554;2024-03-07T12:21:42;25.42;;;19.75;;
59790;SDS011;47431;51.640;5.554;2024-03-07T12:24:12;22.77;;;17.75;;
59790;SDS011;47431;51.640;5.554;2024-03-07T12:26:38;26.23;;;18.35;;
59790;SDS011;47431;51.640;5.554;2024-03-07T12:29:07;24.05;;;17.38;;
59790;SDS011;47431;51.640;5.554;2024-03-07T12:31:36;27.02;;;18.83;;
59790;SDS011;47431;51.640;5.554;2024-03-07T12:34:02;23.10;;;16.98;;
59790;SDS011;47431;51.640;5.554;2024-03-07T12:36:33;22.10;;;17.60;;
59790;SDS011;47431;51.640;5.554;2024-03-07T12:39:23;23.58;;;18.30;;
59790;SDS011;47431;51.640;5.554;2024-03-07T12:41:55;22.77;;;17.83;;
59790;SDS011;47431;51.640;5.554;2024-03-07T12:44:24;23.25;;;17.70;;
59790;SDS011;47431;51.640;5.554;2024-03-07T12:46:53;23.17;;;17.88;;
59790;SDS011;47431;51.640;5.554;2024-03-07T12:49:24;21.55;;;17.58;;
59790;SDS011;47431;51.640;5.554;2024-03-07T12:51:53;21.98;;;16.95;;
59790;SDS011;47431;51.640;5.554;2024-03-07T12:54:19;23.48;;;17.10;;
59790;SDS011;47431;51.640;5.554;2024-03-07T12:56:47;21.70;;;17.05;;
59790;SDS011;47431;51.640;5.554;2024-03-07T12:59:18;21.52;;;16.70;;
59790;SDS011;47431;51.640;5.554;2024-03-07T13:01:45;19.00;;;16.33;;
59790;SDS011;47431;51.640;5.554;2024-03-07T13:04:14;23.92;;;17.08;;
59790;SDS011;47431;51.640;5.554;2024-03-07T13:06:40;19.92;;;15.23;;
59790;SDS011;47431;51.640;5.554;2024-03-07T13:09:09;21.73;;;16.17;;
59790;SDS011;47431;51.640;5.554;2024-03-07T13:11:37;24.15;;;18.42;;
59790;SDS011;47431;51.640;5.554;2024-03-07T13:14:06;23.52;;;17.25;;
59790;SDS011;47431;51.640;5.554;2024-03-07T13:16:32;24.05;;;16.10;;
59790;SDS011;47431;51.640;5.554;2024-03-07T13:18:58;21.60;;;16.83;;
59790;SDS011;47431;51.640;5.554;2024-03-07T13:21:27;21.75;;;17.60;;
59790;SDS011;47431;51.640;5.554;2024-03-07T13:23:52;23.48;;;17.63;;
59790;SDS011;47431;51.640;5.554;2024-03-07T13:26:20;23.58;;;17.73;;
59790;SDS011;47431;51.640;5.554;2024-03-07T13:28:53;23.80;;;17.80;;
59790;SDS011;47431;51.640;5.554;2024-03-07T13:31:19;23.42;;;18.90;;
59790;SDS011;47431;51.640;5.554;2024-03-07T13:33:45;28.77;;;19.27;;
59790;SDS011;47431;51.640;5.554;2024-03-07T13:36:11;23.67;;;17.70;;
59790;SDS011;47431;51.640;5.554;2024-03-07T13:38:39;24.77;;;18.15;;
59790;SDS011;47431;51.640;5.554;2024-03-07T13:41:08;22.83;;;16.55;;
59790;SDS011;47431;51.640;5.554;2024-03-07T13:43:36;30.75;;;19.90;;
59790;SDS011;47431;51.640;5.554;2024-03-07T13:46:03;30.40;;;18.70;;
59790;SDS011;47431;51.640;5.554;2024-03-07T13:48:29;26.85;;;18.45;;
59790;SDS011;47431;51.640;5.554;2024-03-07T13:50:57;22.90;;;18.10;;
59790;SDS011;47431;51.640;5.554;2024-03-07T13:53:22;24.85;;;18.25;;
59790;SDS011;47431;51.640;5.554;2024-03-07T14:12:15;28.08;;;19.70;;
59790;SDS011;47431;51.640;5.554;2024-03-07T14:24:08;26.42;;;20.80;;
59790;SDS011;47431;51.640;5.554;2024-03-07T14:27:01;27.20;;;19.95;;
59790;SDS011;47431;51.640;5.554;2024-03-07T14:32:48;32.93;;;20.93;;
59790;SDS011;47431;51.640;5.554;2024-03-07T14:41:08;24.23;;;19.00;;
59790;SDS011;47431;51.640;5.554;2024-03-07T14:43:37;30.23;;;22.63;;
59790;SDS011;47431;51.640;5.554;2024-03-07T14:46:03;25.05;;;19.70;;
59790;SDS011;47431;51.640;5.554;2024-03-07T14:48:30;28.65;;;21.35;;
59790;SDS011;47431;51.640;5.554;2024-03-07T14:50:59;29.20;;;22.25;;
59790;SDS011;47431;51.640;5.554;2024-03-07T14:53:25;27.35;;;19.88;;
59790;SDS011;47431;51.640;5.554;2024-03-07T14:55:51;23.95;;;18.73;;
59790;SDS011;47431;51.640;5.554;2024-03-07T14:58:17;25.30;;;21.05;;
59790;SDS011;47431;51.640;5.554;2024-03-07T15:00:42;26.40;;;20.92;;
59790;SDS011;47431;51.640;5.554;2024-03-07T15:03:12;26.88;;;20.10;;
59790;SDS011;47431;51.640;5.554;2024-03-07T15:05:43;26.53;;;21.03;;
59790;SDS011;47431;51.640;5.554;2024-03-07T15:08:10;26.38;;;20.17;;